sensor_id;sensor_type;location;lat;lon;timestamp;temperature;humidity
17998;DHT22;9124;48.144;17.098;2023-02-03T00:02:42;3.00;98.50
17998;DHT22;9124;48.144;17.098;2023-02-03T00:06:20;3.00;98.50
17998;DHT22;9124;48.144;17.098;2023-02-03T00:09:57;3.00;98.60
17998;DHT22;9124;48.144;17.098;2023-02-03T00:13:34;3.10;98.60
17998;DHT22;9124;48.144;17.098;2023-02-03T00:17:10;3.10;98.80
17998;DHT22;9124;48.144;17.098;2023-02-03T00:20:47;3.10;98.70
17998;DHT22;9124;48.144;17.098;2023-02-03T00:24:23;3.00;98.70
17998;DHT22;9124;48.144;17.098;2023-02-03T00:28:00;3.10;98.80
17998;DHT22;9124;48.144;17.098;2023-02-03T00:31:36;3.10;98.80
17998;DHT22;9124;48.144;17.098;2023-02-03T00:35:15;3.00;98.80
17998;DHT22;9124;48.144;17.098;2023-02-03T00:38:52;3.00;98.90
17998;DHT22;9124;48.144;17.098;2023-02-03T00:42:28;2.90;98.90
17998;DHT22;9124;48.144;17.098;2023-02-03T00:46:05;2.80;99.20
17998;DHT22;9124;48.144;17.098;2023-02-03T00:49:42;2.80;99.00
17998;DHT22;9124;48.144;17.098;2023-02-03T00:53:19;2.70;99.00
17998;DHT22;9124;48.144;17.098;2023-02-03T00:56:55;2.60;99.30
17998;DHT22;9124;48.144;17.098;2023-02-03T01:00:31;2.50;99.10
17998;DHT22;9124;48.144;17.098;2023-02-03T01:04:08;2.40;99.20
17998;DHT22;9124;48.144;17.098;2023-02-03T01:07:44;2.40;99.40
17998;DHT22;9124;48.144;17.098;2023-02-03T01:11:26;2.30;99.40
17998;DHT22;9124;48.144;17.098;2023-02-03T01:15:02;2.20;99.50
17998;DHT22;9124;48.144;17.098;2023-02-03T01:18:40;2.10;99.60
17998;DHT22;9124;48.144;17.098;2023-02-03T01:22:16;2.10;99.70
17998;DHT22;9124;48.144;17.098;2023-02-03T01:25:52;2.00;99.70
17998;DHT22;9124;48.144;17.098;2023-02-03T01:29:29;2.00;99.90
17998;DHT22;9124;48.144;17.098;2023-02-03T01:33:05;1.90;99.90
17998;DHT22;9124;48.144;17.098;2023-02-03T01:36:42;1.90;99.90
17998;DHT22;9124;48.144;17.098;2023-02-03T01:40:18;1.90;99.90
17998;DHT22;9124;48.144;17.098;2023-02-03T01:43:57;1.80;99.90
17998;DHT22;9124;48.144;17.098;2023-02-03T01:47:54;1.80;99.90
17998;DHT22;9124;48.144;17.098;2023-02-03T01:51:35;1.70;99.90
17998;DHT22;9124;48.144;17.098;2023-02-03T01:55:18;1.70;99.90
17998;DHT22;9124;48.144;17.098;2023-02-03T02:08:16;1.70;99.90
17998;DHT22;9124;48.144;17.098;2023-02-03T02:11:54;1.80;99.90
17998;DHT22;9124;48.144;17.098;2023-02-03T02:15:39;1.90;99.90
17998;DHT22;9124;48.144;17.098;2023-02-03T02:38:55;1.70;99.90
17998;DHT22;9124;48.144;17.098;2023-02-03T02:42:42;1.60;99.90
17998;DHT22;9124;48.144;17.098;2023-02-03T02:46:32;1.50;99.90
17998;DHT22;9124;48.144;17.098;2023-02-03T02:50:22;1.50;99.90
17998;DHT22;9124;48.144;17.098;2023-02-03T02:54:20;1.50;99.90
17998;DHT22;9124;48.144;17.098;2023-02-03T02:58:04;1.50;99.90
17998;DHT22;9124;48.144;17.098;2023-02-03T03:01:41;1.50;99.90
17998;DHT22;9124;48.144;17.098;2023-02-03T03:05:20;1.50;99.90
17998;DHT22;9124;48.144;17.098;2023-02-03T03:09:03;1.60;99.90
17998;DHT22;9124;48.144;17.098;2023-02-03T03:12:48;1.70;99.90
17998;DHT22;9124;48.144;17.098;2023-02-03T03:16:29;2.00;99.90
17998;DHT22;9124;48.144;17.098;2023-02-03T03:20:12;2.20;99.90
17998;DHT22;9124;48.144;17.098;2023-02-03T03:23:53;2.40;99.90
17998;DHT22;9124;48.144;17.098;2023-02-03T03:27:34;2.50;99.90
17998;DHT22;9124;48.144;17.098;2023-02-03T03:31:15;2.70;99.90
17998;DHT22;9124;48.144;17.098;2023-02-03T03:34:54;2.80;99.90
17998;DHT22;9124;48.144;17.098;2023-02-03T03:38:45;2.90;99.90
17998;DHT22;9124;48.144;17.098;2023-02-03T03:46:27;3.10;99.90
17998;DHT22;9124;48.144;17.098;2023-02-03T03:50:09;3.20;99.90
17998;DHT22;9124;48.144;17.098;2023-02-03T03:53:49;3.30;99.90
17998;DHT22;9124;48.144;17.098;2023-02-03T04:10:31;3.40;99.90
17998;DHT22;9124;48.144;17.098;2023-02-03T04:14:09;3.40;99.90
17998;DHT22;9124;48.144;17.098;2023-02-03T04:17:45;3.50;99.90
17998;DHT22;9124;48.144;17.098;2023-02-03T04:21:22;3.60;99.90
17998;DHT22;9124;48.144;17.098;2023-02-03T04:24:58;3.60;99.90
17998;DHT22;9124;48.144;17.098;2023-02-03T04:28:35;3.60;99.90
17998;DHT22;9124;48.144;17.098;2023-02-03T04:32:11;3.60;99.90
17998;DHT22;9124;48.144;17.098;2023-02-03T04:35:47;3.60;99.90
17998;DHT22;9124;48.144;17.098;2023-02-03T04:39:24;3.60;99.90
17998;DHT22;9124;48.144;17.098;2023-02-03T04:43:07;3.60;99.90
17998;DHT22;9124;48.144;17.098;2023-02-03T04:46:43;3.70;99.90
17998;DHT22;9124;48.144;17.098;2023-02-03T04:50:20;3.70;99.90
17998;DHT22;9124;48.144;17.098;2023-02-03T04:53:56;3.60;99.90
17998;DHT22;9124;48.144;17.098;2023-02-03T04:57:33;3.60;99.90
17998;DHT22;9124;48.144;17.098;2023-02-03T05:01:09;3.50;99.90
17998;DHT22;9124;48.144;17.098;2023-02-03T05:04:46;3.60;99.90
17998;DHT22;9124;48.144;17.098;2023-02-03T05:08:22;3.60;99.90
17998;DHT22;9124;48.144;17.098;2023-02-03T05:11:59;3.60;99.90
17998;DHT22;9124;48.144;17.098;2023-02-03T05:15:35;3.60;99.90
17998;DHT22;9124;48.144;17.098;2023-02-03T05:19:12;3.60;99.90
17998;DHT22;9124;48.144;17.098;2023-02-03T05:22:48;3.50;99.90
17998;DHT22;9124;48.144;17.098;2023-02-03T05:26:25;3.40;99.90
17998;DHT22;9124;48.144;17.098;2023-02-03T05:30:01;3.30;99.90
17998;DHT22;9124;48.144;17.098;2023-02-03T05:33:38;3.20;99.90
17998;DHT22;9124;48.144;17.098;2023-02-03T05:37:14;3.10;99.90
17998;DHT22;9124;48.144;17.098;2023-02-03T05:40:51;3.10;99.90
17998;DHT22;9124;48.144;17.098;2023-02-03T05:44:46;3.10;99.90
17998;DHT22;9124;48.144;17.098;2023-02-03T05:48:22;3.00;99.90
17998;DHT22;9124;48.144;17.098;2023-02-03T05:51:58;3.00;99.90
17998;DHT22;9124;48.144;17.098;2023-02-03T05:55:35;2.90;99.90
17998;DHT22;9124;48.144;17.098;2023-02-03T05:59:12;2.90;99.90
17998;DHT22;9124;48.144;17.098;2023-02-03T06:02:57;2.90;99.90
17998;DHT22;9124;48.144;17.098;2023-02-03T06:06:34;2.90;99.90
17998;DHT22;9124;48.144;17.098;2023-02-03T06:10:10;2.90;99.90
17998;DHT22;9124;48.144;17.098;2023-02-03T06:13:47;2.80;99.90
17998;DHT22;9124;48.144;17.098;2023-02-03T06:17:23;2.80;99.90
17998;DHT22;9124;48.144;17.098;2023-02-03T06:21:00;2.90;99.90
17998;DHT22;9124;48.144;17.098;2023-02-03T06:24:36;2.90;99.90
17998;DHT22;9124;48.144;17.098;2023-02-03T06:28:12;2.90;99.90
17998;DHT22;9124;48.144;17.098;2023-02-03T06:31:49;2.90;99.90
17998;DHT22;9124;48.144;17.098;2023-02-03T06:35:25;2.90;99.90
17998;DHT22;9124;48.144;17.098;2023-02-03T06:39:01;2.90;99.90
17998;DHT22;9124;48.144;17.098;2023-02-03T06:51:49;3.00;99.90
17998;DHT22;9124;48.144;17.098;2023-02-03T06:55:27;3.10;99.90
17998;DHT22;9124;48.144;17.098;2023-02-03T06:59:04;3.20;99.90
17998;DHT22;9124;48.144;17.098;2023-02-03T07:07:19;3.20;99.90
17998;DHT22;9124;48.144;17.098;2023-02-03T07:10:56;3.20;99.90
17998;DHT22;9124;48.144;17.098;2023-02-03T07:14:32;3.20;99.90
17998;DHT22;9124;48.144;17.098;2023-02-03T07:18:11;3.20;99.90
17998;DHT22;9124;48.144;17.098;2023-02-03T07:21:47;3.10;99.90
17998;DHT22;9124;48.144;17.098;2023-02-03T07:25:24;3.10;99.90
17998;DHT22;9124;48.144;17.098;2023-02-03T07:29:01;3.00;99.90
17998;DHT22;9124;48.144;17.098;2023-02-03T07:32:37;2.90;99.90
17998;DHT22;9124;48.144;17.098;2023-02-03T07:36:13;2.80;99.90
17998;DHT22;9124;48.144;17.098;2023-02-03T07:39:49;2.70;99.90
17998;DHT22;9124;48.144;17.098;2023-02-03T07:43:26;2.70;99.90
17998;DHT22;9124;48.144;17.098;2023-02-03T07:47:02;2.60;99.90
17998;DHT22;9124;48.144;17.098;2023-02-03T07:50:38;2.70;99.90
17998;DHT22;9124;48.144;17.098;2023-02-03T07:54:14;2.80;99.90
17998;DHT22;9124;48.144;17.098;2023-02-03T07:57:55;2.80;99.90
17998;DHT22;9124;48.144;17.098;2023-02-03T08:01:31;2.80;99.90
17998;DHT22;9124;48.144;17.098;2023-02-03T08:05:10;2.80;99.90
17998;DHT22;9124;48.144;17.098;2023-02-03T08:08:46;2.80;99.90
17998;DHT22;9124;48.144;17.098;2023-02-03T08:12:23;2.80;99.90
17998;DHT22;9124;48.144;17.098;2023-02-03T08:15:59;2.80;99.90
17998;DHT22;9124;48.144;17.098;2023-02-03T08:19:36;2.70;99.90
17998;DHT22;9124;48.144;17.098;2023-02-03T08:23:12;2.80;99.90
17998;DHT22;9124;48.144;17.098;2023-02-03T08:26:48;2.80;99.90
17998;DHT22;9124;48.144;17.098;2023-02-03T08:30:25;2.70;99.90
17998;DHT22;9124;48.144;17.098;2023-02-03T08:34:02;2.80;99.90
17998;DHT22;9124;48.144;17.098;2023-02-03T08:37:38;2.80;99.90
17998;DHT22;9124;48.144;17.098;2023-02-03T08:41:16;2.80;99.90
17998;DHT22;9124;48.144;17.098;2023-02-03T08:44:55;2.90;99.90
17998;DHT22;9124;48.144;17.098;2023-02-03T08:48:57;2.90;99.90
17998;DHT22;9124;48.144;17.098;2023-02-03T08:52:35;2.90;99.90
17998;DHT22;9124;48.144;17.098;2023-02-03T08:56:12;3.00;99.90
17998;DHT22;9124;48.144;17.098;2023-02-03T08:59:48;3.00;99.90
17998;DHT22;9124;48.144;17.098;2023-02-03T09:03:51;3.10;99.90
17998;DHT22;9124;48.144;17.098;2023-02-03T09:07:27;3.00;99.90
17998;DHT22;9124;48.144;17.098;2023-02-03T09:11:15;3.10;99.90
17998;DHT22;9124;48.144;17.098;2023-02-03T09:14:52;3.10;99.90
17998;DHT22;9124;48.144;17.098;2023-02-03T09:18:29;3.20;99.90
17998;DHT22;9124;48.144;17.098;2023-02-03T09:22:05;3.20;99.90
17998;DHT22;9124;48.144;17.098;2023-02-03T09:25:41;3.20;99.90
17998;DHT22;9124;48.144;17.098;2023-02-03T09:29:19;3.20;99.90
17998;DHT22;9124;48.144;17.098;2023-02-03T09:32:55;3.20;99.90
17998;DHT22;9124;48.144;17.098;2023-02-03T09:36:32;3.30;99.90
17998;DHT22;9124;48.144;17.098;2023-02-03T09:40:17;3.50;99.90
17998;DHT22;9124;48.144;17.098;2023-02-03T09:47:43;3.60;99.90
17998;DHT22;9124;48.144;17.098;2023-02-03T09:52:17;3.60;99.90
17998;DHT22;9124;48.144;17.098;2023-02-03T09:55:53;3.60;99.90
17998;DHT22;9124;48.144;17.098;2023-02-03T09:59:32;3.50;99.90
17998;DHT22;9124;48.144;17.098;2023-02-03T10:03:27;3.60;99.90
17998;DHT22;9124;48.144;17.098;2023-02-03T10:11:30;3.90;99.90
17998;DHT22;9124;48.144;17.098;2023-02-03T10:24:02;4.20;99.90
17998;DHT22;9124;48.144;17.098;2023-02-03T10:27:40;4.10;99.90
17998;DHT22;9124;48.144;17.098;2023-02-03T10:31:20;4.10;99.90
17998;DHT22;9124;48.144;17.098;2023-02-03T10:34:59;3.90;99.90
17998;DHT22;9124;48.144;17.098;2023-02-03T10:42:19;3.90;99.90
17998;DHT22;9124;48.144;17.098;2023-02-03T10:45:57;3.80;99.90
17998;DHT22;9124;48.144;17.098;2023-02-03T10:49:34;3.90;99.90
17998;DHT22;9124;48.144;17.098;2023-02-03T10:53:18;3.90;99.90
17998;DHT22;9124;48.144;17.098;2023-02-03T10:57:01;4.10;99.90
17998;DHT22;9124;48.144;17.098;2023-02-03T11:00:38;4.30;99.90
17998;DHT22;9124;48.144;17.098;2023-02-03T11:04:29;4.60;99.90
17998;DHT22;9124;48.144;17.098;2023-02-03T11:08:15;5.20;99.90
17998;DHT22;9124;48.144;17.098;2023-02-03T11:16:09;6.10;99.90
17998;DHT22;9124;48.144;17.098;2023-02-03T11:19:49;6.40;99.90
17998;DHT22;9124;48.144;17.098;2023-02-03T11:23:26;6.70;99.90
17998;DHT22;9124;48.144;17.098;2023-02-03T11:27:09;6.80;99.90
17998;DHT22;9124;48.144;17.098;2023-02-03T11:30:55;6.90;99.90
17998;DHT22;9124;48.144;17.098;2023-02-03T11:34:35;7.00;99.90
17998;DHT22;9124;48.144;17.098;2023-02-03T11:43:58;7.20;99.90
17998;DHT22;9124;48.144;17.098;2023-02-03T11:47:45;7.30;99.90
17998;DHT22;9124;48.144;17.098;2023-02-03T11:51:37;7.40;99.90
17998;DHT22;9124;48.144;17.098;2023-02-03T12:22:45;7.30;99.90
17998;DHT22;9124;48.144;17.098;2023-02-03T12:27:27;7.20;99.90
17998;DHT22;9124;48.144;17.098;2023-02-03T12:30:42;7.20;99.90
17998;DHT22;9124;48.144;17.098;2023-02-03T12:38:04;7.30;99.90
17998;DHT22;9124;48.144;17.098;2023-02-03T12:41:53;7.30;99.90
17998;DHT22;9124;48.144;17.098;2023-02-03T12:45:31;7.20;99.90
17998;DHT22;9124;48.144;17.098;2023-02-03T12:49:40;7.20;99.90
17998;DHT22;9124;48.144;17.098;2023-02-03T12:53:26;7.10;99.90
17998;DHT22;9124;48.144;17.098;2023-02-03T12:57:33;7.00;99.90
17998;DHT22;9124;48.144;17.098;2023-02-03T13:01:21;6.90;99.90
17998;DHT22;9124;48.144;17.098;2023-02-03T13:05:18;6.80;99.90
17998;DHT22;9124;48.144;17.098;2023-02-03T13:09:04;6.70;99.90
17998;DHT22;9124;48.144;17.098;2023-02-03T13:12:55;6.70;99.90
17998;DHT22;9124;48.144;17.098;2023-02-03T13:16:35;6.70;99.90
17998;DHT22;9124;48.144;17.098;2023-02-03T13:20:40;6.70;99.90
17998;DHT22;9124;48.144;17.098;2023-02-03T13:24:16;6.70;99.90
17998;DHT22;9124;48.144;17.098;2023-02-03T13:40:16;6.90;99.90
17998;DHT22;9124;48.144;17.098;2023-02-03T13:43:56;6.90;99.90
17998;DHT22;9124;48.144;17.098;2023-02-03T13:47:34;6.90;99.90
17998;DHT22;9124;48.144;17.098;2023-02-03T13:51:20;6.90;99.90
17998;DHT22;9124;48.144;17.098;2023-02-03T13:54:57;7.00;99.90
17998;DHT22;9124;48.144;17.098;2023-02-03T13:58:38;7.10;99.90
17998;DHT22;9124;48.144;17.098;2023-02-03T14:05:59;7.10;99.90
17998;DHT22;9124;48.144;17.098;2023-02-03T14:09:37;7.10;99.90
17998;DHT22;9124;48.144;17.098;2023-02-03T14:13:20;7.00;99.90
17998;DHT22;9124;48.144;17.098;2023-02-03T14:16:56;7.00;99.90
17998;DHT22;9124;48.144;17.098;2023-02-03T14:20:38;6.90;99.90
17998;DHT22;9124;48.144;17.098;2023-02-03T14:24:16;6.90;99.90
17998;DHT22;9124;48.144;17.098;2023-02-03T14:28:04;6.80;99.90
17998;DHT22;9124;48.144;17.098;2023-02-03T14:35:53;6.70;99.90
17998;DHT22;9124;48.144;17.098;2023-02-03T14:39:49;6.60;99.90
17998;DHT22;9124;48.144;17.098;2023-02-03T14:43:38;6.50;99.90
17998;DHT22;9124;48.144;17.098;2023-02-03T14:55:57;6.20;99.90
17998;DHT22;9124;48.144;17.098;2023-02-03T14:59:52;6.20;99.90
17998;DHT22;9124;48.144;17.098;2023-02-03T15:03:30;6.10;99.90
17998;DHT22;9124;48.144;17.098;2023-02-03T15:07:36;6.10;99.90
17998;DHT22;9124;48.144;17.098;2023-02-03T15:11:33;6.10;99.90
17998;DHT22;9124;48.144;17.098;2023-02-03T15:15:19;6.10;99.90
17998;DHT22;9124;48.144;17.098;2023-02-03T15:18:59;6.10;99.90
17998;DHT22;9124;48.144;17.098;2023-02-03T15:22:37;6.10;99.90
17998;DHT22;9124;48.144;17.098;2023-02-03T15:26:21;6.10;99.90
17998;DHT22;9124;48.144;17.098;2023-02-03T15:30:34;6.10;99.90
17998;DHT22;9124;48.144;17.098;2023-02-03T15:34:32;6.20;99.90
17998;DHT22;9124;48.144;17.098;2023-02-03T15:38:25;6.20;99.90
17998;DHT22;9124;48.144;17.098;2023-02-03T15:42:03;6.30;99.90
17998;DHT22;9124;48.144;17.098;2023-02-03T15:49:40;6.30;99.90
17998;DHT22;9124;48.144;17.098;2023-02-03T15:53:34;6.30;99.90
17998;DHT22;9124;48.144;17.098;2023-02-03T15:57:24;6.30;99.90
17998;DHT22;9124;48.144;17.098;2023-02-03T16:01:07;6.30;99.90
17998;DHT22;9124;48.144;17.098;2023-02-03T16:04:45;6.30;99.90
17998;DHT22;9124;48.144;17.098;2023-02-03T16:12:30;6.40;99.90
17998;DHT22;9124;48.144;17.098;2023-02-03T16:16:16;6.50;99.90
17998;DHT22;9124;48.144;17.098;2023-02-03T16:20:21;6.50;99.90
17998;DHT22;9124;48.144;17.098;2023-02-03T16:23:58;6.50;99.90
17998;DHT22;9124;48.144;17.098;2023-02-03T16:27:35;6.60;99.90
17998;DHT22;9124;48.144;17.098;2023-02-03T16:31:17;6.60;99.90
17998;DHT22;9124;48.144;17.098;2023-02-03T16:35:13;6.60;99.90
17998;DHT22;9124;48.144;17.098;2023-02-03T16:39:11;6.60;99.90
17998;DHT22;9124;48.144;17.098;2023-02-03T16:43:12;6.70;99.90
17998;DHT22;9124;48.144;17.098;2023-02-03T16:47:42;6.70;99.90
17998;DHT22;9124;48.144;17.098;2023-02-03T16:51:40;6.50;99.90
17998;DHT22;9124;48.144;17.098;2023-02-03T16:55:17;6.50;99.90
17998;DHT22;9124;48.144;17.098;2023-02-03T16:58:54;6.60;99.90
17998;DHT22;9124;48.144;17.098;2023-02-03T17:02:30;6.60;99.90
17998;DHT22;9124;48.144;17.098;2023-02-03T17:06:09;6.60;99.90
17998;DHT22;9124;48.144;17.098;2023-02-03T17:09:45;6.60;99.90
17998;DHT22;9124;48.144;17.098;2023-02-03T17:17:57;6.80;99.90
17998;DHT22;9124;48.144;17.098;2023-02-03T17:21:34;6.80;99.90
17998;DHT22;9124;48.144;17.098;2023-02-03T17:25:10;6.80;99.90
17998;DHT22;9124;48.144;17.098;2023-02-03T17:28:46;6.90;99.90
17998;DHT22;9124;48.144;17.098;2023-02-03T17:32:22;6.90;99.90
17998;DHT22;9124;48.144;17.098;2023-02-03T17:36:04;7.00;99.90
17998;DHT22;9124;48.144;17.098;2023-02-03T17:39:41;7.00;99.90
17998;DHT22;9124;48.144;17.098;2023-02-03T17:43:17;7.10;99.90
17998;DHT22;9124;48.144;17.098;2023-02-03T17:46:54;7.10;99.90
17998;DHT22;9124;48.144;17.098;2023-02-03T17:50:30;7.20;99.90
17998;DHT22;9124;48.144;17.098;2023-02-03T17:54:06;7.30;99.90
17998;DHT22;9124;48.144;17.098;2023-02-03T17:57:43;7.30;99.90
17998;DHT22;9124;48.144;17.098;2023-02-03T18:01:19;7.30;99.90
17998;DHT22;9124;48.144;17.098;2023-02-03T18:04:56;7.30;99.90
17998;DHT22;9124;48.144;17.098;2023-02-03T18:08:32;7.30;99.90
17998;DHT22;9124;48.144;17.098;2023-02-03T18:12:10;7.30;99.90
17998;DHT22;9124;48.144;17.098;2023-02-03T18:15:46;7.30;99.90
17998;DHT22;9124;48.144;17.098;2023-02-03T18:19:48;7.20;99.90
17998;DHT22;9124;48.144;17.098;2023-02-03T18:28:03;7.10;99.90
17998;DHT22;9124;48.144;17.098;2023-02-03T18:31:39;7.00;99.90
17998;DHT22;9124;48.144;17.098;2023-02-03T18:35:15;6.70;99.90
17998;DHT22;9124;48.144;17.098;2023-02-03T18:38:53;6.40;99.90
17998;DHT22;9124;48.144;17.098;2023-02-03T18:42:29;6.20;99.90
17998;DHT22;9124;48.144;17.098;2023-02-03T18:46:10;6.10;99.90
17998;DHT22;9124;48.144;17.098;2023-02-03T18:49:47;6.10;99.90
17998;DHT22;9124;48.144;17.098;2023-02-03T18:53:23;6.10;99.90
17998;DHT22;9124;48.144;17.098;2023-02-03T18:57:00;6.10;99.90
17998;DHT22;9124;48.144;17.098;2023-02-03T19:00:38;6.20;99.90
17998;DHT22;9124;48.144;17.098;2023-02-03T19:04:14;6.20;99.90
17998;DHT22;9124;48.144;17.098;2023-02-03T19:07:51;6.20;99.90
17998;DHT22;9124;48.144;17.098;2023-02-03T19:11:27;6.30;99.90
17998;DHT22;9124;48.144;17.098;2023-02-03T19:15:04;6.20;99.90
17998;DHT22;9124;48.144;17.098;2023-02-03T19:18:44;6.20;99.90
17998;DHT22;9124;48.144;17.098;2023-02-03T19:22:21;6.20;99.90
17998;DHT22;9124;48.144;17.098;2023-02-03T19:25:57;6.10;99.90
17998;DHT22;9124;48.144;17.098;2023-02-03T19:29:34;6.10;99.90
17998;DHT22;9124;48.144;17.098;2023-02-03T19:33:10;6.10;99.90
17998;DHT22;9124;48.144;17.098;2023-02-03T19:36:47;6.30;99.90
17998;DHT22;9124;48.144;17.098;2023-02-03T19:40:23;6.30;99.90
17998;DHT22;9124;48.144;17.098;2023-02-03T19:44:00;6.30;99.90
17998;DHT22;9124;48.144;17.098;2023-02-03T19:47:36;6.30;99.90
17998;DHT22;9124;48.144;17.098;2023-02-03T19:51:13;6.30;99.90
17998;DHT22;9124;48.144;17.098;2023-02-03T19:54:49;6.20;99.90
17998;DHT22;9124;48.144;17.098;2023-02-03T19:58:29;6.20;99.90
17998;DHT22;9124;48.144;17.098;2023-02-03T20:02:05;6.20;99.90
17998;DHT22;9124;48.144;17.098;2023-02-03T20:05:42;6.20;99.90
17998;DHT22;9124;48.144;17.098;2023-02-03T20:09:18;6.10;99.90
17998;DHT22;9124;48.144;17.098;2023-02-03T20:12:55;6.10;99.90
17998;DHT22;9124;48.144;17.098;2023-02-03T20:16:31;6.10;99.90
17998;DHT22;9124;48.144;17.098;2023-02-03T20:20:08;6.10;99.90
17998;DHT22;9124;48.144;17.098;2023-02-03T20:28:25;6.10;99.90
17998;DHT22;9124;48.144;17.098;2023-02-03T20:32:03;6.10;99.90
17998;DHT22;9124;48.144;17.098;2023-02-03T20:35:41;6.10;99.90
17998;DHT22;9124;48.144;17.098;2023-02-03T20:39:19;6.10;99.90
17998;DHT22;9124;48.144;17.098;2023-02-03T20:42:55;6.10;99.90
17998;DHT22;9124;48.144;17.098;2023-02-03T20:46:32;6.10;99.90
17998;DHT22;9124;48.144;17.098;2023-02-03T20:50:17;6.10;99.90
17998;DHT22;9124;48.144;17.098;2023-02-03T20:53:54;6.20;99.90
17998;DHT22;9124;48.144;17.098;2023-02-03T20:57:32;6.20;99.90
17998;DHT22;9124;48.144;17.098;2023-02-03T21:01:17;6.30;99.90
17998;DHT22;9124;48.144;17.098;2023-02-03T21:04:53;6.30;99.90
17998;DHT22;9124;48.144;17.098;2023-02-03T21:08:32;6.30;99.90
17998;DHT22;9124;48.144;17.098;2023-02-03T21:12:11;6.30;99.90
17998;DHT22;9124;48.144;17.098;2023-02-03T21:15:56;6.30;99.90
17998;DHT22;9124;48.144;17.098;2023-02-03T21:19:35;6.30;99.90
17998;DHT22;9124;48.144;17.098;2023-02-03T21:23:11;6.30;99.90
17998;DHT22;9124;48.144;17.098;2023-02-03T21:26:49;6.30;99.90
17998;DHT22;9124;48.144;17.098;2023-02-03T21:34:33;6.30;99.90
17998;DHT22;9124;48.144;17.098;2023-02-03T21:38:29;6.30;99.90
17998;DHT22;9124;48.144;17.098;2023-02-03T21:42:33;6.40;99.90
17998;DHT22;9124;48.144;17.098;2023-02-03T21:46:28;6.30;99.90
17998;DHT22;9124;48.144;17.098;2023-02-03T21:54:28;5.90;99.90
17998;DHT22;9124;48.144;17.098;2023-02-03T22:11:35;5.50;99.90
17998;DHT22;9124;48.144;17.098;2023-02-03T22:15:11;5.50;99.90
17998;DHT22;9124;48.144;17.098;2023-02-03T22:18:48;5.50;99.90
17998;DHT22;9124;48.144;17.098;2023-02-03T22:32:26;5.70;99.90
17998;DHT22;9124;48.144;17.098;2023-02-03T22:36:03;5.70;99.90
17998;DHT22;9124;48.144;17.098;2023-02-03T22:39:41;5.90;99.90
17998;DHT22;9124;48.144;17.098;2023-02-03T22:48:47;6.10;99.90
17998;DHT22;9124;48.144;17.098;2023-02-03T23:02:24;6.30;99.90
17998;DHT22;9124;48.144;17.098;2023-02-03T23:06:00;6.30;99.90
17998;DHT22;9124;48.144;17.098;2023-02-03T23:09:37;6.30;99.90
17998;DHT22;9124;48.144;17.098;2023-02-03T23:13:13;6.30;99.90
17998;DHT22;9124;48.144;17.098;2023-02-03T23:16:50;6.40;99.90
17998;DHT22;9124;48.144;17.098;2023-02-03T23:20:26;6.50;99.90
17998;DHT22;9124;48.144;17.098;2023-02-03T23:24:02;6.60;99.90
17998;DHT22;9124;48.144;17.098;2023-02-03T23:27:39;6.70;99.90
17998;DHT22;9124;48.144;17.098;2023-02-03T23:31:15;6.70;99.90
17998;DHT22;9124;48.144;17.098;2023-02-03T23:34:52;6.70;99.90
17998;DHT22;9124;48.144;17.098;2023-02-03T23:38:47;6.60;99.90
17998;DHT22;9124;48.144;17.098;2023-02-03T23:42:23;6.40;99.90
17998;DHT22;9124;48.144;17.098;2023-02-03T23:45:59;6.40;99.90
17998;DHT22;9124;48.144;17.098;2023-02-03T23:49:36;6.30;99.90
17998;DHT22;9124;48.144;17.098;2023-02-03T23:53:12;6.30;99.90
17998;DHT22;9124;48.144;17.098;2023-02-03T23:56:49;6.30;99.90
